FAHS/HDS METAR and TAF weather

Enter ICAO airport designator
Station Type Date Time Source
FAHS METAR 2019/08/18 20:00 UTC NOAA

FAHS 182000Z AUTO 29003KT //// // ////// 16/09 Q1025


Station Type Date Time Source
FAHS Decoded METAR 2019/08/18 20:00 UTC NOAA

Station name not available
Aug 18, 2019 - 04:00 PM EDT / 2019.08.18 2000 UTC
Wind: from the WNW (290 degrees) at 3 MPH (3 KT):0
Temperature: 60 F (16 C)
Dew Point: 48 F (9 C)
Relative Humidity: 63%
Pressure (altimeter): 30.27 in. Hg (1025 hPa)
ob: FAHS 182000Z AUTO 29003KT //// // ////// 16/09 Q1025
cycle: 20

Station Type Date Time Source
FAHS TAF 2017/05/23 04:01 UTC NOAA

TAF FAHS 230300Z 2304/2315 VRB02KT CAVOK TX29/2312ZTN12/2304Z

Example: see airport list